Time;durP1;ratioP1;P1;durP2;ratioP2;P2;SDS_P1;SDS_P2;PMS_P1;PMS_P2;Temp;Humidity;BMP_temperature;BMP_pressure;BME280_temperature;BME280_humidity;BME280_pressure;Samples;Min_cycle;Max_cycle;Signal;HPM_P1;HPM_P2
2022/10/10 00:01:11;;;;;;;;;;;22.30;50.80;;;;;;6074182;29;20055;-57
2022/10/10 00:04:13;;;;;;;0.60;0.55;;;22.90;51.00;;;;;;6070534;29;19937;-57
2022/10/10 00:07:14;;;;;;;;;;;22.80;51.10;;;;;;6079403;28;20722;-56
2022/10/10 00:10:16;;;;;;;0.50;0.40;;;22.30;51.00;;;;;;6074365;28;20880;-58
2022/10/10 00:13:18;;;;;;;0.50;0.40;;;22.50;51.00;;;;;;6058666;28;20134;-57
2022/10/10 00:16:19;;;;;;;;;;;22.50;51.20;;;;;;6078297;28;20118;-56
2022/10/10 00:19:20;;;;;;;;;;;22.50;51.40;;;;;;6063934;29;19962;-58
2022/10/10 00:22:25;;;;;;;0.73;0.50;;;22.30;51.20;;;;;;6082884;28;20662;-58
2022/10/10 00:25:30;;;;;;;;;;;22.20;51.00;;;;;;6072918;28;20535;-56
2022/10/10 00:28:32;;;;;;;1.20;0.60;;;22.50;51.40;;;;;;6081798;29;20474;-57
2022/10/10 00:31:34;;;;;;;1.23;0.70;;;22.50;51.20;;;;;;6078089;28;20043;-57
2022/10/10 00:34:35;;;;;;;0.70;0.50;;;22.30;51.40;;;;;;6059711;28;20879;-57
2022/10/10 00:37:37;;;;;;;0.57;0.50;;;22.10;51.30;;;;;;6090708;28;20066;-57
2022/10/10 00:40:46;;;;;;;0.57;0.50;;;22.30;51.50;;;;;;6084359;28;20792;-56
2022/10/10 00:44:04;;;;;;;0.90;0.65;;;22.50;51.60;;;;;;6053191;29;20052;-57
2022/10/10 00:47:05;;;;;;;0.60;0.50;;;22.20;51.60;;;;;;6084755;29;20097;-56
2022/10/10 00:50:07;;;;;;;0.60;0.60;;;22.60;51.80;;;;;;6089369;28;20071;-57
2022/10/10 00:53:11;;;;;;;1.02;0.77;;;22.10;51.60;;;;;;6090174;28;20098;-56
2022/10/10 00:56:14;;;;;;;0.88;0.60;;;22.60;51.90;;;;;;6087643;28;20058;-57
2022/10/10 00:59:17;;;;;;;0.55;0.40;;;22.60;52.00;;;;;;6069520;29;20051;-54
2022/10/10 01:02:18;;;;;;;0.70;0.60;;;22.40;51.90;;;;;;6093933;28;20047;-55
2022/10/10 01:05:20;;;;;;;0.90;0.70;;;22.80;52.10;;;;;;6080194;29;20040;-57
2022/10/10 01:08:22;;;;;;;0.60;0.50;;;22.40;52.00;;;;;;6091088;28;20101;-56
2022/10/10 01:11:37;;;;;;;0.63;0.52;;;22.60;52.20;;;;;;6086940;28;20082;-52
2022/10/10 01:14:46;;;;;;;0.70;0.45;;;22.60;52.10;;;;;;6081026;28;20051;-51
2022/10/10 01:17:56;;;;;;;0.80;0.55;;;22.30;52.00;;;;;;6088142;28;20448;-54
2022/10/10 01:21:12;;;;;;;0.60;0.40;;;22.20;52.30;;;;;;6071561;28;20538;-54
2022/10/10 01:24:29;;;;;;;0.70;0.45;;;22.40;52.10;;;;;;6077937;28;20322;-54
2022/10/10 01:27:40;;;;;;;0.88;0.57;;;22.60;52.30;;;;;;6080175;29;20519;-54
2022/10/10 01:30:42;;;;;;;0.40;0.30;;;22.50;52.20;;;;;;6078835;28;20090;-54
2022/10/10 01:33:53;;;;;;;1.00;0.60;;;22.50;52.30;;;;;;6090985;28;20915;-54
2022/10/10 01:37:01;;;;;;;0.80;0.63;;;22.50;52.30;;;;;;6087650;28;20533;-52
2022/10/10 01:40:08;;;;;;;0.98;0.55;;;22.40;52.40;;;;;;6082692;28;20819;-51
2022/10/10 01:43:11;;;;;;;0.73;0.50;;;22.20;52.30;;;;;;6092266;28;20043;-53
2022/10/10 01:46:15;;;;;;;0.63;0.52;;;22.60;52.60;;;;;;6084610;28;20133;-54
2022/10/10 01:49:17;;;;;;;0.70;0.60;;;22.40;52.60;;;;;;6087802;28;20225;-54
2022/10/10 01:52:29;;;;;;;0.40;0.40;;;22.50;52.70;;;;;;6080792;28;20083;-52
2022/10/10 01:55:45;;;;;;;0.60;0.50;;;23.00;53.00;;;;;;6091980;28;20440;-52
2022/10/10 01:59:03;;;;;;;0.85;0.65;;;22.50;52.80;;;;;;6076964;29;20567;-53
2022/10/10 02:02:11;;;;;;;0.70;0.60;;;22.20;52.80;;;;;;6090975;28;20047;-57
2022/10/10 02:05:22;;;;;;;0.95;0.60;;;22.40;53.50;;;;;;6082936;28;20055;-55
2022/10/10 02:08:28;;;;;;;0.60;0.50;;;22.40;53.00;;;;;;6081909;29;20669;-55
2022/10/10 02:11:33;;;;;;;0.68;0.50;;;22.10;52.80;;;;;;6072555;28;20349;-55
2022/10/10 02:14:39;;;;;;;0.63;0.40;;;22.20;53.00;;;;;;6072638;29;20043;-57
2022/10/10 02:17:44;;;;;;;0.82;0.50;;;22.30;53.10;;;;;;6077572;28;20060;-55
2022/10/10 02:20:47;;;;;;;0.80;0.70;;;22.40;53.30;;;;;;6082777;28;20047;-56
2022/10/10 02:23:52;;;;;;;1.08;0.60;;;22.50;53.40;;;;;;6062945;29;20083;-55
2022/10/10 02:26:58;;;;;;;0.90;0.82;;;22.10;53.40;;;;;;6057512;28;20060;-54
2022/10/10 02:30:04;;;;;;;0.95;0.75;;;22.40;53.80;;;;;;6073621;28;20394;-56
2022/10/10 02:33:07;;;;;;;0.80;0.70;;;22.40;54.00;;;;;;6053131;29;20086;-53
2022/10/10 02:36:14;;;;;;;1.30;0.60;;;22.60;54.40;;;;;;6067144;28;20061;-56
2022/10/10 02:39:18;;;;;;;1.20;0.70;;;22.60;54.70;;;;;;6067020;29;20331;-53
2022/10/10 02:42:22;;;;;;;1.75;1.00;;;22.20;54.70;;;;;;6062517;29;20438;-56
2022/10/10 02:45:24;;;;;;;0.77;0.70;;;22.30;55.00;;;;;;6072235;29;20058;-56
2022/10/10 02:48:26;;;;;;;0.70;0.52;;;22.20;55.20;;;;;;6080902;28;20443;-55
2022/10/10 02:51:27;;;;;;;0.77;0.70;;;22.40;55.60;;;;;;6087039;28;20178;-53
2022/10/10 02:54:31;;;;;;;0.90;0.77;;;22.20;55.60;;;;;;6072034;29;20051;-53
2022/10/10 02:57:36;;;;;;;0.95;0.70;;;22.20;55.70;;;;;;6067019;28;20052;-55
2022/10/10 03:00:38;;;;;;;1.02;0.80;;;22.30;55.70;;;;;;6073976;29;20422;-54
2022/10/10 03:03:40;;;;;;;0.88;0.70;;;22.70;56.00;;;;;;6079327;28;20786;-50
2022/10/10 03:06:42;;;;;;;0.90;0.80;;;22.30;55.60;;;;;;6086596;28;20341;-55
2022/10/10 03:09:43;;;;;;;0.80;0.70;;;21.90;55.50;;;;;;6073466;28;20059;-56
2022/10/10 03:12:44;;;;;;;0.75;0.60;;;22.50;55.80;;;;;;6073959;28;20567;-55
2022/10/10 03:15:46;;;;;;;;;;;22.50;55.80;;;;;;6093496;28;20211;-49
2022/10/10 03:18:48;;;;;;;1.05;0.68;;;22.10;55.70;;;;;;6090703;28;20179;-52
2022/10/10 03:21:49;;;;;;;4.15;0.98;;;22.20;55.60;;;;;;6092753;28;20741;-52
2022/10/10 03:24:50;;;;;;;;;;;22.20;55.80;;;;;;6094997;28;20114;-54
2022/10/10 03:27:52;;;;;;;1.10;0.70;;;22.20;56.10;;;;;;6090720;28;20075;-55
2022/10/10 03:30:53;;;;;;;;;;;22.30;55.90;;;;;;6072083;28;20276;-52
2022/10/10 03:33:56;;;;;;;1.02;0.70;;;22.10;56.00;;;;;;6079740;28;20480;-53
2022/10/10 03:36:57;;;;;;;1.30;0.80;;;22.50;55.90;;;;;;6069975;29;20052;-50
2022/10/10 03:39:58;;;;;;;1.00;0.68;;;21.90;55.90;;;;;;6076238;28;20070;-53
2022/10/10 03:43:00;;;;;;;;;;;22.50;56.30;;;;;;6081997;28;20110;-56
2022/10/10 03:46:01;;;;;;;1.08;0.65;;;22.50;56.50;;;;;;6087657;28;19926;-54
2022/10/10 03:49:03;;;;;;;;;;;22.50;56.30;;;;;;6079749;28;20493;-53
2022/10/10 03:52:04;;;;;;;0.90;0.77;;;22.20;56.30;;;;;;6075108;28;19927;-53
2022/10/10 03:55:06;;;;;;;;;;;22.60;56.30;;;;;;6077141;29;21011;-54
2022/10/10 03:58:08;;;;;;;;;;;22.00;56.20;;;;;;6070967;28;20041;-51
2022/10/10 04:01:12;;;;;;;1.15;0.93;;;22.20;56.20;;;;;;6069553;28;20658;-56
2022/10/10 04:04:14;;;;;;;0.70;0.65;;;22.40;56.20;;;;;;6089252;28;20039;-54
2022/10/10 04:07:19;;;;;;;0.65;0.50;;;21.90;56.30;;;;;;6080218;28;20499;-53
2022/10/10 04:10:21;;;;;;;0.90;0.70;;;22.50;56.80;;;;;;6073854;29;20794;-54
2022/10/10 04:13:24;;;;;;;;;;;22.10;56.70;;;;;;6081620;28;20198;-56
2022/10/10 04:16:25;;;;;;;0.80;0.70;;;22.20;56.70;;;;;;6070619;29;20261;-53
2022/10/10 04:19:27;;;;;;;;;;;21.90;56.60;;;;;;6077897;28;20049;-52
2022/10/10 04:22:32;;;;;;;0.90;0.70;;;22.10;56.80;;;;;;6090689;28;19937;-56
2022/10/10 04:25:33;;;;;;;1.75;1.05;;;22.10;56.70;;;;;;6075916;28;20214;-54
2022/10/10 04:28:35;;;;;;;1.10;1.00;;;22.20;56.90;;;;;;6073275;29;20438;-52
2022/10/10 04:31:37;;;;;;;1.63;0.95;;;22.40;57.20;;;;;;6073428;28;20066;-53
2022/10/10 04:34:39;;;;;;;1.35;0.95;;;22.40;57.30;;;;;;6064920;28;20137;-53
2022/10/10 04:37:40;;;;;;;2.03;1.00;;;22.40;57.50;;;;;;6062760;28;20188;-53
2022/10/10 04:40:41;;;;;;;;;;;22.60;57.80;;;;;;6078681;28;20039;-52
2022/10/10 04:43:43;;;;;;;1.38;1.00;;;22.70;58.00;;;;;;6073342;28;20029;-56
2022/10/10 04:46:45;;;;;;;1.75;1.20;;;22.60;57.80;;;;;;6080281;28;21380;-53
2022/10/10 04:49:47;;;;;;;1.30;1.08;;;22.10;72.60;;;;;;6075380;28;20209;-53
2022/10/10 04:52:48;;;;;;;1.23;1.00;;;22.20;57.80;;;;;;6083198;28;20054;-51
2022/10/10 04:55:51;;;;;;;1.42;1.20;;;22.50;58.20;;;;;;6088331;28;20463;-54
2022/10/10 04:58:52;;;;;;;1.45;0.98;;;22.60;58.30;;;;;;6072101;28;20480;-53
2022/10/10 05:01:54;;;;;;;;;;;22.50;58.40;;;;;;6079843;28;20164;-50
2022/10/10 05:05:02;;;;;;;1.42;1.02;;;22.40;58.40;;;;;;6085003;28;19932;-54
2022/10/10 05:08:04;;;;;;;1.75;1.20;;;22.30;58.20;;;;;;6074985;28;20051;-56
2022/10/10 05:11:09;;;;;;;2.08;1.30;;;22.30;58.40;;;;;;6079297;28;20048;-56
2022/10/10 05:14:10;;;;;;;2.10;1.30;;;22.40;58.70;;;;;;6079909;29;20054;-55
2022/10/10 05:17:11;;;;;;;1.10;0.90;;;21.90;58.50;;;;;;6083708;28;20040;-52
2022/10/10 05:20:13;;;;;;;;;;;22.40;58.90;;;;;;6071997;28;20052;-51
2022/10/10 05:23:16;;;;;;;1.65;1.00;;;22.70;59.20;;;;;;6066367;28;20045;-52
2022/10/10 05:26:18;;;;;;;2.13;1.17;;;22.20;58.70;;;;;;6042260;29;20312;-52
2022/10/10 05:29:20;;;;;;;1.88;1.05;;;21.90;58.70;;;;;;6063572;29;20764;-52
2022/10/10 05:32:22;;;;;;;;;;;22.60;59.30;;;;;;6062401;28;20174;-55
2022/10/10 05:35:24;;;;;;;1.83;1.30;;;22.40;59.90;;;;;;6068215;28;20630;-54
2022/10/10 05:38:25;;;;;;;1.50;1.30;;;22.00;59.00;;;;;;6061971;28;20090;-54
2022/10/10 05:41:27;;;;;;;;;;;22.50;59.40;;;;;;6064137;28;20077;-55
2022/10/10 05:44:28;;;;;;;2.25;1.20;;;21.90;59.30;;;;;;6072006;28;19930;-53
2022/10/10 05:47:30;;;;;;;;;;;22.50;59.40;;;;;;5660783;28;22279;-54
2022/10/10 05:50:37;;;;;;;1.98;1.27;;;22.70;60.10;;;;;;4526842;28;22391;-56
2022/10/10 05:53:39;;;;;;;1.30;1.08;;;22.40;59.90;;;;;;4476395;29;21384;-56
2022/10/10 05:56:41;;;;;;;1.75;1.23;;;22.50;59.90;;;;;;4570926;29;21330;-55
2022/10/10 05:59:43;;;;;;;1.98;1.40;;;22.40;59.80;;;;;;4613358;29;20051;-56
2022/10/10 06:02:44;;;;;;;1.30;1.20;;;22.10;59.80;;;;;;4636401;28;20043;-56
2022/10/10 06:05:50;;;;;;;1.45;1.15;;;22.70;60.30;;;;;;4686655;29;20047;-55
2022/10/10 06:08:52;;;;;;;1.10;1.00;;;22.10;60.00;;;;;;4602635;29;20051;-56
2022/10/10 06:11:54;;;;;;;1.55;1.00;;;22.30;60.10;;;;;;4604183;28;20058;-57
2022/10/10 06:14:56;;;;;;;1.30;1.00;;;22.20;59.90;;;;;;4593241;28;20043;-55
2022/10/10 06:17:58;;;;;;;1.38;1.05;;;22.70;60.30;;;;;;4621021;28;20238;-56
2022/10/10 06:21:03;;;;;;;1.58;1.10;;;22.30;60.00;;;;;;4634643;28;20055;-57
2022/10/10 06:24:05;;;;;;;1.02;0.88;;;22.30;59.60;;;;;;5621341;28;20196;-57
2022/10/10 06:27:07;;;;;;;1.20;1.00;;;22.30;60.00;;;;;;5466544;28;20039;-57
2022/10/10 06:30:10;;;;;;;1.13;0.82;;;22.10;59.60;;;;;;4692724;28;23052;-56
2022/10/10 06:33:17;;;;;;;1.75;1.05;;;22.60;60.00;;;;;;4353743;29;21168;-57
2022/10/10 06:36:20;;;;;;;1.15;0.88;;;22.50;60.10;;;;;;4900758;28;20051;-58
2022/10/10 06:39:21;;;;;;;1.10;0.80;;;22.40;59.50;;;;;;5983730;28;20133;-57
2022/10/10 06:42:23;;;;;;;1.10;0.90;;;22.10;59.50;;;;;;4657355;28;21530;-57
2022/10/10 06:45:34;;;;;;;1.15;1.00;;;22.40;59.70;;;;;;5992957;28;21512;-55
2022/10/10 06:48:35;;;;;;;1.70;0.90;;;22.20;59.50;;;;;;5963342;28;20052;-57
2022/10/10 06:51:38;;;;;;;;;;;22.50;59.70;;;;;;5969922;28;20170;-56
2022/10/10 06:54:40;;;;;;;3.33;1.25;;;22.30;59.60;;;;;;5968244;28;19937;-57
2022/10/10 06:57:42;;;;;;;2.40;1.63;;;22.10;59.40;;;;;;5950108;29;21611;-56
2022/10/10 07:00:49;;;;;;;1.65;1.05;;;22.40;59.80;;;;;;5952566;28;20050;-57
2022/10/10 07:03:51;;;;;;;3.40;1.10;;;22.40;59.80;;;;;;5943461;28;20051;-57
2022/10/10 07:06:53;;;;;;;2.67;1.15;;;22.50;60.00;;;;;;5945878;28;20051;-58
2022/10/10 07:09:55;;;;;;;4.95;1.65;;;22.60;60.20;;;;;;5903498;28;20052;-59
2022/10/10 07:12:56;;;;;;;4.13;1.10;;;22.70;60.10;;;;;;5879331;29;20040;-59
2022/10/10 07:15:58;;;;;;;3.60;1.27;;;22.50;60.50;;;;;;5864265;28;20059;-61
2022/10/10 07:19:00;;;;;;;3.20;0.98;;;22.50;60.40;;;;;;5651237;28;20062;-54
2022/10/10 07:22:03;;;;;;;1.73;1.00;;;22.80;60.70;;;;;;5871329;28;22039;-59
2022/10/10 07:25:05;;;;;;;1.90;1.23;;;23.00;60.70;;;;;;5814771;28;22426;-56
2022/10/10 07:28:08;;;;;;;2.85;0.93;;;22.50;60.50;;;;;;5067925;28;30553;-59
2022/10/10 07:31:10;;;;;;;1.20;1.00;;;22.40;60.30;;;;;;5778408;28;20062;-59
2022/10/10 07:34:12;;;;;;;11.20;1.20;;;22.40;60.50;;;;;;5738731;28;30341;-60
2022/10/10 07:37:14;;;;;;;4.05;1.60;;;22.70;60.70;;;;;;5653113;28;31913;-62
2022/10/10 07:40:17;;;;;;;4.70;1.42;;;22.90;61.10;;;;;;4932662;28;33284;-62
2022/10/10 07:43:21;;;;;;;1.85;1.30;;;22.80;61.70;;;;;;5821912;28;28439;-62
2022/10/10 07:46:24;;;;;;;2.47;1.30;;;23.00;61.20;;;;;;5776850;29;21119;-60
2022/10/10 07:49:25;;;;;;;7.05;1.08;;;23.00;61.10;;;;;;5808571;28;31337;-60
2022/10/10 07:52:27;;;;;;;2.05;1.13;;;22.80;61.00;;;;;;5577712;28;21067;-62
2022/10/10 07:55:29;;;;;;;1.75;0.98;;;22.50;60.60;;;;;;5722485;28;21390;-59
2022/10/10 07:58:31;;;;;;;3.78;1.10;;;22.50;60.50;;;;;;5793555;28;23520;-62
2022/10/10 08:01:33;;;;;;;1.88;1.10;;;23.00;60.80;;;;;;5730766;28;31329;-59
2022/10/10 08:04:35;;;;;;;1.73;1.23;;;23.30;60.90;;;;;;5613671;28;21271;-61
2022/10/10 08:07:37;;;;;;;1.35;1.00;;;23.00;60.80;;;;;;5769030;28;32049;-63
2022/10/10 08:10:43;;;;;;;2.95;1.08;;;23.20;60.60;;;;;;4015030;28;32137;-60
2022/10/10 08:13:45;;;;;;;1.77;1.17;;;23.00;60.80;;;;;;4505920;28;22140;-61
2022/10/10 08:16:46;;;;;;;1.52;0.80;;;23.20;60.50;;;;;;5774671;28;22954;-60
2022/10/10 08:19:48;;;;;;;1.50;1.10;;;23.10;60.40;;;;;;5697132;28;23438;-60
2022/10/10 08:22:55;;;;;;;1.35;1.13;;;23.30;60.50;;;;;;5798685;28;21286;-61
2022/10/10 08:25:58;;;;;;;2.38;1.00;;;23.10;60.30;;;;;;5705335;28;25966;-54
2022/10/10 08:29:00;;;;;;;1.15;0.80;;;23.20;60.30;;;;;;5776704;28;23223;-60
2022/10/10 08:32:01;;;;;;;2.10;1.00;;;23.40;60.50;;;;;;5686877;28;32537;-61
2022/10/10 08:35:03;;;;;;;4.75;1.20;;;23.20;60.20;;;;;;5780982;28;33345;-61
2022/10/10 08:38:09;;;;;;;1.33;1.00;;;23.50;60.40;;;;;;5764450;28;32002;-61
2022/10/10 08:41:18;;;;;;;1.27;0.90;;;23.50;60.50;;;;;;5764416;28;20588;-62
2022/10/10 08:44:24;;;;;;;1.10;0.90;;;23.30;60.30;;;;;;5767427;28;22121;-60
2022/10/10 08:47:33;;;;;;;2.15;0.88;;;23.40;60.30;;;;;;5798391;28;26080;-61
2022/10/10 08:50:39;;;;;;;5.72;1.00;;;23.30;60.10;;;;;;5772230;28;31893;-59
2022/10/10 08:53:45;;;;;;;2.30;1.27;;;23.50;60.30;;;;;;5784805;28;24304;-60
2022/10/10 08:56:49;;;;;;;1.92;1.40;;;23.30;60.00;;;;;;5697016;28;24747;-62
2022/10/10 08:59:54;;;;;;;3.10;1.40;;;23.40;59.80;;;;;;5725728;28;26643;-62
2022/10/10 09:03:00;;;;;;;1.77;1.42;;;23.40;59.60;;;;;;5647033;28;32410;-61
2022/10/10 09:06:21;;;;;;;2.83;1.58;;;23.60;59.60;;;;;;5787420;28;35913;-62
2022/10/10 09:09:33;;;;;;;2.22;1.17;;;23.60;59.60;;;;;;5750401;28;24173;-63
2022/10/10 09:12:44;;;;;;;4.18;1.42;;;23.30;59.40;;;;;;5739155;28;31866;-63
2022/10/10 09:15:53;;;;;;;2.92;1.67;;;23.50;59.40;;;;;;4427528;28;24658;-60
2022/10/10 09:19:02;;;;;;;4.43;2.35;;;23.40;59.50;;;;;;5758296;28;24881;-61
2022/10/10 09:22:11;;;;;;;1.85;1.60;;;23.50;59.20;;;;;;4691305;28;23630;-63
2022/10/10 09:25:20;;;;;;;2.20;1.40;;;23.30;59.30;;;;;;4817374;28;24160;-62
2022/10/10 09:28:35;;;;;;;3.30;1.23;;;23.60;59.30;;;;;;5707316;28;23843;-59
2022/10/10 09:31:43;;;;;;;2.30;1.30;;;23.70;59.70;;;;;;4186530;28;21580;-59
2022/10/10 09:34:48;;;;;;;2.90;1.10;;;23.70;59.50;;;;;;5824490;28;20170;-59
2022/10/10 09:37:52;;;;;;;1.95;1.40;;;23.60;59.50;;;;;;5615781;28;25726;-61
2022/10/10 09:40:58;;;;;;;1.92;1.20;;;23.70;59.50;;;;;;5369635;28;20125;-61
2022/10/10 09:44:06;;;;;;;1.73;1.02;;;23.70;59.50;;;;;;5801095;28;20058;-62
2022/10/10 09:47:13;;;;;;;2.28;1.00;;;23.70;59.50;;;;;;3626234;28;23736;-60
2022/10/10 09:50:16;;;;;;;1.55;1.13;;;23.50;59.50;;;;;;5764255;28;23169;-59
2022/10/10 09:53:17;;;;;;;2.10;1.10;;;23.60;59.50;;;;;;5797119;28;24879;-60
2022/10/10 09:56:23;;;;;;;1.42;1.00;;;23.70;59.60;;;;;;5180894;28;21883;-61
2022/10/10 09:59:41;;;;;;;1.65;0.93;;;23.70;59.60;;;;;;4494825;28;25854;-59
2022/10/10 10:02:43;;;;;;;1.30;0.65;;;23.60;59.50;;;;;;4518517;28;25240;-58
2022/10/10 10:05:53;;;;;;;1.92;1.05;;;23.70;59.70;;;;;;4487641;28;22967;-57
2022/10/10 10:09:00;;;;;;;1.40;0.80;;;23.70;59.70;;;;;;4571067;28;20114;-58
2022/10/10 10:12:05;;;;;;;1.52;0.93;;;23.50;59.40;;;;;;4546931;28;23314;-56
2022/10/10 10:15:17;;;;;;;0.95;0.70;;;23.80;59.50;;;;;;4573627;28;21739;-57
2022/10/10 10:18:26;;;;;;;1.38;0.82;;;23.90;59.70;;;;;;4464670;28;22304;-60
2022/10/10 10:21:29;;;;;;;2.55;0.82;;;23.70;59.60;;;;;;4494765;28;20990;-60
2022/10/10 10:24:35;;;;;;;2.58;0.77;;;23.50;59.40;;;;;;4503938;29;20964;-60
2022/10/10 10:27:38;;;;;;;2.10;0.70;;;23.30;59.30;;;;;;4616253;28;21184;-57
2022/10/10 10:30:41;;;;;;;1.85;0.90;;;23.80;59.60;;;;;;4687077;28;20134;-56
2022/10/10 10:33:51;;;;;;;4.97;0.90;;;23.80;59.40;;;;;;4613384;28;20889;-54
2022/10/10 10:37:00;;;;;;;1.13;0.60;;;23.70;59.50;;;;;;4529578;28;20939;-55
2022/10/10 10:40:16;;;;;;;1.23;0.70;;;23.80;59.50;;;;;;4466803;28;20051;-56
2022/10/10 10:43:34;;;;;;;1.73;0.88;;;23.50;59.30;;;;;;4541087;28;21022;-57
2022/10/10 10:46:46;;;;;;;0.93;0.70;;;24.00;59.50;;;;;;4600514;28;20047;-56
2022/10/10 10:50:00;;;;;;;1.13;0.73;;;23.80;74.60;;;;;;4432404;28;20672;-56
2022/10/10 10:53:10;;;;;;;1.02;0.88;;;23.70;59.40;;;;;;3784560;28;21248;-57
2022/10/10 10:56:25;;;;;;;0.82;0.68;;;23.90;59.40;;;;;;4573979;28;20063;-56
2022/10/10 10:59:37;;;;;;;2.47;0.93;;;23.90;59.50;;;;;;4389679;28;21180;-57
2022/10/10 11:03:06;;;;;;;;;;;23.80;59.20;;;;;;4520828;28;20050;-57
2022/10/10 11:06:45;;;;;;;0.93;0.50;;;24.00;59.30;;;;;;4512013;28;22624;-57
2022/10/10 11:10:13;;;;;;;1.05;0.70;;;23.90;59.40;;;;;;4458479;28;22714;-57
2022/10/10 11:13:23;;;;;;;0.73;0.63;;;23.90;59.20;;;;;;4385498;28;24173;-57
2022/10/10 11:16:31;;;;;;;1.17;0.80;;;24.00;59.40;;;;;;4785291;28;23167;-57
2022/10/10 11:19:57;;;;;;;1.35;0.90;;;24.20;59.50;;;;;;5933358;28;20039;-56
2022/10/10 11:23:05;;;;;;;1.38;0.60;;;24.00;59.30;;;;;;5940195;28;20055;-58
2022/10/10 11:26:19;;;;;;;1.92;0.90;;;23.70;59.20;;;;;;5873018;29;21302;-53
2022/10/10 11:29:24;;;;;;;0.70;0.50;;;24.10;59.40;;;;;;5873990;28;20051;-57
2022/10/10 11:32:32;;;;;;;2.00;0.90;;;24.00;59.50;;;;;;5850603;28;22261;-57
2022/10/10 11:35:40;;;;;;;1.52;1.05;;;24.10;59.60;;;;;;5870631;28;20117;-57
2022/10/10 11:38:46;;;;;;;2.40;1.00;;;24.20;59.70;;;;;;5884851;28;20055;-61
2022/10/10 11:41:54;;;;;;;1.33;0.80;;;24.00;59.80;;;;;;5845817;29;20056;-61
2022/10/10 11:45:05;;;;;;;1.10;0.60;;;24.00;59.80;;;;;;4472780;28;23955;-63
2022/10/10 11:48:22;;;;;;;1.00;0.60;;;24.00;60.00;;;;;;5710882;28;21190;-63
2022/10/10 11:51:35;;;;;;;1.65;0.82;;;24.10;60.20;;;;;;5823530;28;20088;-62
2022/10/10 11:54:43;;;;;;;0.82;0.60;;;24.00;60.30;;;;;;5827492;28;32575;-62
2022/10/10 11:57:51;;;;;;;1.00;0.70;;;24.10;60.40;;;;;;5807993;28;29898;-62
2022/10/10 12:00:58;;;;;;;1.13;0.68;;;24.00;60.50;;;;;;5666692;28;20911;-60
2022/10/10 12:04:00;;;;;;;0.70;0.60;;;24.00;60.50;;;;;;5814739;28;23525;-60
2022/10/10 12:07:06;;;;;;;2.72;0.60;;;24.00;60.50;;;;;;3447560;28;22812;-59
2022/10/10 12:10:15;;;;;;;1.83;0.82;;;24.00;60.90;;;;;;3196182;28;22870;-62
2022/10/10 12:13:26;;;;;;;2.28;0.90;;;23.90;60.80;;;;;;4487954;28;20851;-62
2022/10/10 12:16:30;;;;;;;1.13;0.80;;;24.20;60.80;;;;;;5680514;29;21366;-61
2022/10/10 12:19:34;;;;;;;2.55;1.02;;;24.10;60.50;;;;;;4701933;29;22154;-60
2022/10/10 12:22:37;;;;;;;2.53;1.00;;;24.10;60.70;;;;;;3201774;28;22879;-61
2022/10/10 12:25:42;;;;;;;1.40;0.82;;;23.80;60.70;;;;;;5108623;28;23188;-61
2022/10/10 12:29:01;;;;;;;2.92;0.70;;;24.30;60.50;;;;;;4339114;29;22532;-57
2022/10/10 12:32:23;;;;;;;1.20;0.77;;;24.30;60.90;;;;;;4879265;28;21836;-55
2022/10/10 12:35:33;;;;;;;1.35;0.68;;;23.90;60.20;;;;;;5861429;28;20191;-54
2022/10/10 12:38:35;;;;;;;1.40;0.77;;;24.20;60.30;;;;;;5858056;28;21755;-58
2022/10/10 12:41:54;;;;;;;1.40;0.68;;;24.30;60.30;;;;;;5860084;28;23216;-56
2022/10/10 12:44:57;;;;;;;0.90;0.60;;;23.80;60.10;;;;;;5871434;28;20051;-52
2022/10/10 12:48:01;;;;;;;1.02;0.60;;;24.20;61.10;;;;;;5853838;28;20149;-51
2022/10/10 12:51:18;;;;;;;0.70;0.60;;;24.30;60.60;;;;;;5830870;28;20054;-51
2022/10/10 12:54:26;;;;;;;0.70;0.50;;;24.10;60.50;;;;;;5842922;28;21646;-55
2022/10/10 12:57:32;;;;;;;1.05;0.73;;;24.30;60.60;;;;;;5532926;28;20047;-52
2022/10/10 13:00:38;;;;;;;0.82;0.63;;;24.50;60.80;;;;;;5774682;28;21484;-56
2022/10/10 13:03:46;;;;;;;1.15;0.68;;;24.20;60.80;;;;;;4471496;28;22015;-57
2022/10/10 13:06:53;;;;;;;0.70;0.50;;;23.90;61.00;;;;;;3750898;28;21276;-57
2022/10/10 13:10:05;;;;;;;0.60;0.30;;;24.10;61.30;;;;;;4734620;29;21285;-60
2022/10/10 13:13:17;;;;;;;0.57;0.30;;;24.30;61.30;;;;;;5011111;28;20179;-59
2022/10/10 13:16:21;;;;;;;1.45;0.47;;;24.00;61.30;;;;;;5857314;28;20090;-56
2022/10/10 13:19:24;;;;;;;0.47;0.30;;;24.30;61.50;;;;;;5806697;28;35694;-57
2022/10/10 13:22:30;;;;;;;0.60;0.40;;;24.30;61.90;;;;;;4779437;28;20043;-57
2022/10/10 13:25:33;;;;;;;0.30;0.20;;;24.30;62.10;;;;;;5798821;28;20043;-57
2022/10/10 13:28:36;;;;;;;0.93;0.32;;;24.30;62.30;;;;;;5814581;28;22680;-61
2022/10/10 13:31:38;;;;;;;0.28;0.20;;;24.20;62.40;;;;;;5765355;28;22472;-58
2022/10/10 13:34:46;;;;;;;0.30;0.25;;;24.40;62.70;;;;;;5792072;28;20981;-60
2022/10/10 13:37:51;;;;;;;1.13;0.30;;;24.30;62.80;;;;;;5825288;28;20054;-58
2022/10/10 13:40:53;;;;;;;0.40;0.30;;;24.30;62.90;;;;;;5796771;28;26365;-58
2022/10/10 13:43:55;;;;;;;0.30;0.10;;;24.10;62.80;;;;;;5828815;28;29226;-57
2022/10/10 13:46:57;;;;;;;0.20;0.20;;;24.20;63.00;;;;;;5795205;28;29479;-57
2022/10/10 13:49:59;;;;;;;0.10;0.10;;;23.90;62.90;;;;;;5152061;28;30134;-55
2022/10/10 13:53:30;;;;;;;0.30;0.20;;;24.10;63.10;;;;;;4500559;28;20681;-56
2022/10/10 13:56:38;;;;;;;0.35;0.20;;;24.30;63.20;;;;;;4514579;28;20482;-58
2022/10/10 13:59:45;;;;;;;0.15;0.15;;;24.20;63.20;;;;;;4554843;28;20047;-59
2022/10/10 14:02:47;;;;;;;0.45;0.30;;;24.00;63.00;;;;;;4567810;28;20090;-57
2022/10/10 14:05:49;;;;;;;0.45;0.20;;;24.00;62.90;;;;;;5757621;28;21870;-56
2022/10/10 14:08:54;;;;;;;0.10;0.10;;;24.30;63.70;;;;;;4252265;28;21832;-54
2022/10/10 14:11:57;;;;;;;0.40;0.30;;;24.00;63.00;;;;;;4271089;28;21957;-60
2022/10/10 14:15:00;;;;;;;0.57;0.20;;;24.20;63.20;;;;;;5235804;28;20181;-58
2022/10/10 14:18:11;;;;;;;0.15;0.10;;;24.20;62.90;;;;;;5781689;28;20052;-57
2022/10/10 14:21:16;;;;;;;1.10;0.20;;;24.00;62.80;;;;;;5287724;28;20075;-61
2022/10/10 14:24:18;;;;;;;0.10;0.10;;;24.20;62.70;;;;;;5810513;28;28760;-59
2022/10/10 14:27:24;;;;;;;0.32;0.20;;;24.30;62.70;;;;;;5219749;28;29664;-60
2022/10/10 14:30:26;;;;;;;0.30;0.20;;;24.20;63.00;;;;;;3173116;28;23599;-62
2022/10/10 14:33:29;;;;;;;0.73;0.47;;;24.20;62.80;;;;;;3436728;28;23684;-60
2022/10/10 14:36:32;;;;;;;0.75;0.40;;;24.10;62.60;;;;;;5272103;28;21573;-62
2022/10/10 14:39:35;;;;;;;0.35;0.20;;;24.40;62.50;;;;;;5792577;28;20070;-63
2022/10/10 14:42:37;;;;;;;0.63;0.50;;;24.30;62.50;;;;;;5795045;28;29034;-61
2022/10/10 14:45:39;;;;;;;0.52;0.22;;;24.40;62.50;;;;;;5787397;28;30881;-62
2022/10/10 14:48:41;;;;;;;0.60;0.20;;;24.20;62.30;;;;;;5778148;29;20860;-62
2022/10/10 14:51:42;;;;;;;0.40;0.20;;;24.20;62.60;;;;;;5781270;28;22176;-62
2022/10/10 14:54:44;;;;;;;0.70;0.22;;;24.20;62.20;;;;;;5787634;28;24250;-61
2022/10/10 14:57:46;;;;;;;0.40;0.20;;;24.60;62.30;;;;;;5811384;28;20058;-62
2022/10/10 15:00:50;;;;;;;1.27;0.40;;;24.30;62.10;;;;;;5781166;28;20048;-58
2022/10/10 15:03:52;;;;;;;0.80;0.30;;;24.30;62.00;;;;;;5804840;28;29891;-60
2022/10/10 15:06:54;;;;;;;0.28;0.20;;;24.10;61.80;;;;;;5829614;28;29545;-64
2022/10/10 15:10:14;;;;;;;2.10;0.82;;;24.30;61.70;;;;;;5802986;28;20055;-59
2022/10/10 15:13:38;;;;;;;0.32;0.20;;;24.10;61.50;;;;;;5756637;28;20034;-61
2022/10/10 15:16:39;;;;;;;0.35;0.30;;;24.40;61.60;;;;;;5776579;28;20048;-62
2022/10/10 15:19:41;;;;;;;0.10;0.10;;;24.20;61.20;;;;;;5803093;28;20051;-61
2022/10/10 15:22:45;;;;;;;0.20;0.20;;;24.40;61.20;;;;;;5849045;28;20141;-60
2022/10/10 15:25:47;;;;;;;0.60;0.30;;;24.30;61.20;;;;;;5827621;28;20050;-58
2022/10/10 15:28:49;;;;;;;0.40;0.30;;;24.30;60.90;;;;;;5780600;28;20087;-60
2022/10/10 15:31:52;;;;;;;0.30;0.20;;;24.30;60.80;;;;;;5819627;28;20051;-61
2022/10/10 15:34:54;;;;;;;0.38;0.20;;;24.30;60.60;;;;;;5827236;28;20254;-58
2022/10/10 15:37:58;;;;;;;0.52;0.20;;;24.30;60.50;;;;;;5824077;28;20062;-56
2022/10/10 15:41:02;;;;;;;0.40;0.20;;;24.20;60.40;;;;;;5840775;28;33965;-59
2022/10/10 15:44:04;;;;;;;0.40;0.22;;;24.40;60.60;;;;;;5825012;28;27521;-59
2022/10/10 15:47:05;;;;;;;0.35;0.28;;;24.30;60.40;;;;;;5886042;28;20089;-57
2022/10/10 15:50:09;;;;;;;6.15;0.20;;;24.30;60.40;;;;;;5727581;28;21345;-61
2022/10/10 15:53:11;;;;;;;0.73;0.20;;;24.00;60.10;;;;;;5828577;29;21339;-61
2022/10/10 15:56:15;;;;;;;1.08;0.13;;;24.20;60.10;;;;;;5946017;28;21684;-61
2022/10/10 15:59:16;;;;;;;0.20;0.10;;;24.40;60.10;;;;;;5907597;29;20049;-62
2022/10/10 16:02:19;;;;;;;0.10;0.10;;;24.20;59.90;;;;;;3555642;28;21745;-60
2022/10/10 16:05:21;;;;;;;0.30;0.20;;;24.20;60.00;;;;;;4994529;28;21393;-61
2022/10/10 16:08:23;;;;;;;0.10;0.10;;;24.00;59.70;;;;;;5952014;28;20049;-61
2022/10/10 16:11:25;;;;;;;0.30;0.20;;;24.00;59.60;;;;;;5971789;28;20047;-61